Time;durP1;ratioP1;P1;durP2;ratioP2;P2;SDS_P1;SDS_P2;PMS_P1;PMS_P2;Temp;Humidity;BMP_temperature;BMP_pressure;BME280_temperature;BME280_humidity;BME280_pressure;Samples;Min_cycle;Max_cycle;Signal;HPM_P1;HPM_P2
2021/12/13 00:01:31;;;;;;;18.40;10.10;;;;;;;-0.10;100.00;94737.53;5079518;28;20208;-75
2021/12/13 00:04:07;;;;;;;15.70;9.27;;;;;;;-0.10;100.00;94734.97;5088985;28;20211;-76
2021/12/13 00:06:38;;;;;;;15.23;9.07;;;;;;;-0.10;100.00;94743.44;5088004;28;20328;-75
2021/12/13 00:09:12;;;;;;;12.43;8.17;;;;;;;-0.13;100.00;94725.06;5088944;28;20208;-75
2021/12/13 00:11:43;;;;;;;12.30;7.60;;;;;;;-0.01;100.00;94742.53;5087206;28;20294;-75
2021/12/13 00:14:14;;;;;;;11.60;7.10;;;;;;;0.02;100.00;94748.28;5088576;28;20263;-75
2021/12/13 00:16:49;;;;;;;9.63;5.77;;;;;;;0.03;100.00;94748.13;5087847;28;20586;-75
2021/12/13 00:19:23;;;;;;;11.50;6.97;;;;;;;0.05;100.00;94753.91;5088576;28;20204;-75
2021/12/13 00:21:58;;;;;;;13.73;7.27;;;;;;;0.06;100.00;94759.81;5087652;28;20232;-75
2021/12/13 00:24:30;;;;;;;12.13;7.67;;;;;;;0.06;100.00;94750.38;5085048;28;20697;-76
2021/12/13 00:27:04;;;;;;;11.77;7.67;;;;;;;0.09;100.00;94762.06;5087730;28;20242;-75
2021/12/13 00:29:44;;;;;;;12.13;7.97;;;;;;;0.15;100.00;94762.22;5088046;28;20201;-76
2021/12/13 00:32:19;;;;;;;9.57;6.53;;;;;;;0.13;100.00;94755.69;5085508;28;20197;-76
2021/12/13 00:34:52;;;;;;;11.57;6.93;;;;;;;0.16;100.00;94761.28;5087273;28;20188;-76
2021/12/13 00:37:24;;;;;;;13.87;9.17;;;;;;;0.12;100.00;94759.19;5088265;28;20258;-76
2021/12/13 00:39:57;;;;;;;12.20;8.17;;;;;;;0.14;100.00;94758.09;5086710;28;20204;-75
2021/12/13 00:42:30;;;;;;;13.17;8.27;;;;;;;0.07;100.00;94748.63;5084498;28;20220;-74
2021/12/13 00:45:03;;;;;;;12.23;7.70;;;;;;;0.10;100.00;94751.69;5087662;28;20189;-75
2021/12/13 00:47:35;;;;;;;10.43;6.60;;;;;;;0.13;100.00;94769.25;5087147;28;20199;-75
2021/12/13 00:50:08;;;;;;;8.50;5.87;;;;;;;0.14;100.00;94762.41;5087139;28;20329;-74
2021/12/13 00:52:39;;;;;;;9.80;5.77;;;;;;;0.13;100.00;94765.91;5086812;28;20219;-74
2021/12/13 00:55:12;;;;;;;8.53;6.03;;;;;;;0.11;100.00;94763.50;5084638;28;20228;-74
2021/12/13 00:57:44;;;;;;;6.73;5.07;;;;;;;0.11;100.00;94765.25;5085925;28;20652;-74
2021/12/13 01:00:20;;;;;;;7.63;5.40;;;;;;;0.12;100.00;94762.53;5087272;28;20200;-74
2021/12/13 01:02:54;;;;;;;10.03;5.70;;;;;;;0.14;100.00;94759.84;5086536;28;20248;-74
2021/12/13 01:05:44;;;;;;;8.23;5.87;;;;;;;0.11;100.00;94760.94;5087640;28;20594;-74
2021/12/13 01:08:33;;;;;;;11.57;6.40;;;;;;;0.14;100.00;94749.63;5087181;28;20208;-74
2021/12/13 01:11:21;;;;;;;6.90;5.30;;;;;;;0.16;100.00;94752.81;5086588;28;20287;-74
2021/12/13 01:14:15;;;;;;;8.13;5.50;;;;;;;0.18;100.00;94751.72;5086229;28;20223;-74
2021/12/13 01:17:02;;;;;;;8.83;5.77;;;;;;;0.17;100.00;94744.22;5085669;28;20226;-74
2021/12/13 01:19:48;;;;;;;6.13;5.07;;;;;;;0.19;100.00;94757.63;5084754;28;20203;-74
2021/12/13 01:22:44;;;;;;;11.23;6.00;;;;;;;0.20;100.00;94759.25;5083903;28;20818;-74
2021/12/13 01:25:26;;;;;;;8.77;6.50;;;;;;;0.23;100.00;94754.59;5082698;28;20633;-74
2021/12/13 01:28:01;;;;;;;9.37;6.07;;;;;;;0.21;100.00;94745.50;5086011;28;20724;-74
2021/12/13 01:30:36;;;;;;;9.20;6.33;;;;;;;0.20;100.00;94747.28;5086610;28;20286;-75
2021/12/13 01:33:07;;;;;;;8.37;5.90;;;;;;;0.22;100.00;94758.13;5085801;28;20217;-75
2021/12/13 01:35:39;;;;;;;8.50;5.83;;;;;;;0.13;100.00;94750.56;5086609;28;20200;-75
2021/12/13 01:38:11;;;;;;;10.27;6.67;;;;;;;0.19;100.00;94738.00;5087095;28;20224;-74
2021/12/13 01:40:40;;;;;;;8.00;5.87;;;;;;;0.23;100.00;94748.72;5085990;28;20204;-74
2021/12/13 01:43:16;;;;;;;9.60;6.37;;;;;;;0.13;100.00;94760.78;5086653;28;20255;-75
2021/12/13 01:45:49;;;;;;;13.33;7.30;;;;;;;0.09;100.00;94762.84;5086376;28;20231;-74
2021/12/13 01:48:22;;;;;;;9.60;6.40;;;;;;;0.12;100.00;94766.84;5087484;28;20284;-74
2021/12/13 01:51:04;;;;;;;10.93;6.77;;;;;;;0.13;100.00;94760.78;5085988;28;20290;-75
2021/12/13 01:53:36;;;;;;;11.20;7.50;;;;;;;0.14;100.00;94753.00;5086831;28;20278;-75
2021/12/13 01:56:22;;;;;;;11.10;7.50;;;;;;;0.18;100.00;94753.47;5086618;28;20228;-75
2021/12/13 01:58:52;;;;;;;11.40;7.60;;;;;;;0.12;100.00;94749.75;5086328;28;20223;-74
2021/12/13 02:01:24;;;;;;;10.43;6.70;;;;;;;0.17;100.00;94745.03;5083546;28;20205;-74
2021/12/13 02:04:00;;;;;;;11.23;7.33;;;;;;;0.20;100.00;94754.13;5085999;28;20232;-74
2021/12/13 02:06:38;;;;;;;9.80;6.50;;;;;;;0.21;100.00;94755.72;5086697;28;20212;-74
2021/12/13 02:09:11;;;;;;;10.60;6.73;;;;;;;0.17;100.00;94746.78;5084337;28;20723;-74
2021/12/13 02:11:41;;;;;;;9.10;6.73;;;;;;;0.08;100.00;94747.69;5086204;28;20196;-74
2021/12/13 02:14:15;;;;;;;10.83;7.17;;;;;;;0.06;100.00;94745.25;5087569;28;20694;-74
2021/12/13 02:17:01;;;;;;;7.87;5.63;;;;;;;0.02;100.00;94745.72;5086017;28;20276;-74
2021/12/13 02:19:39;;;;;;;10.20;6.67;;;;;;;0.06;100.00;94742.69;5084125;28;20204;-74
2021/12/13 02:22:34;;;;;;;11.03;6.53;;;;;;;0.03;100.00;94745.56;5089860;28;20288;-73
2021/12/13 02:25:10;;;;;;;10.63;7.43;;;;;;;-0.04;100.00;94739.47;5089970;28;20212;-74
2021/12/13 02:27:43;;;;;;;12.00;7.27;;;;;;;-0.10;100.00;94727.31;5087688;28;20311;-74
2021/12/13 02:30:18;;;;;;;10.20;6.60;;;;;;;0.03;100.00;94739.69;5090749;28;20200;-74
2021/12/13 02:32:49;;;;;;;11.43;7.30;;;;;;;0.00;100.00;94739.00;5090037;28;20189;-74
2021/12/13 02:35:21;;;;;;;13.73;8.03;;;;;;;0.06;100.00;94744.47;5090097;28;20207;-74
2021/12/13 02:37:50;;;;;;;14.40;8.73;;;;;;;0.07;100.00;94739.22;5089054;28;20207;-75
2021/12/13 02:40:22;;;;;;;13.37;8.57;;;;;;;0.07;100.00;94754.53;5088636;28;20208;-75
2021/12/13 02:42:52;;;;;;;14.93;9.17;;;;;;;0.12;100.00;94751.50;5089159;28;20244;-75
2021/12/13 02:45:25;;;;;;;16.90;10.70;;;;;;;0.16;100.00;94753.63;5090342;28;20603;-74
2021/12/13 02:48:02;;;;;;;12.50;9.37;;;;;;;0.17;100.00;94755.25;5089138;28;20196;-75
2021/12/13 02:50:38;;;;;;;14.47;9.03;;;;;;;0.16;100.00;94756.19;5089850;28;20206;-74
2021/12/13 02:53:10;;;;;;;12.83;9.37;;;;;;;0.16;100.00;94752.81;5084151;28;20295;-74
2021/12/13 02:55:39;;;;;;;14.20;9.53;;;;;;;0.15;100.00;94748.66;5088794;28;20311;-74
2021/12/13 02:58:11;;;;;;;10.50;7.67;;;;;;;0.14;100.00;94753.00;5089864;28;20204;-74
2021/12/13 03:00:44;;;;;;;11.57;7.60;;;;;;;0.12;100.00;94757.44;5089026;28;20207;-74
2021/12/13 03:03:16;;;;;;;9.23;7.03;;;;;;;0.13;100.00;94753.13;5089984;28;20890;-74
2021/12/13 03:05:47;;;;;;;10.77;7.17;;;;;;;0.09;100.00;94750.06;5088981;28;20197;-75
2021/12/13 03:08:20;;;;;;;11.67;8.37;;;;;;;0.05;100.00;94753.09;5090173;28;20622;-74
2021/12/13 03:10:53;;;;;;;10.90;7.73;;;;;;;0.05;100.00;94751.34;5089104;28;20244;-74
2021/12/13 03:13:23;;;;;;;9.33;6.50;;;;;;;0.03;100.00;94758.31;5089779;28;20204;-74
2021/12/13 03:16:06;;;;;;;10.30;7.07;;;;;;;0.08;100.00;94755.34;5089361;28;20667;-75
2021/12/13 03:18:43;;;;;;;10.37;6.77;;;;;;;0.09;100.00;94752.63;5087220;28;20196;-74
2021/12/13 03:21:39;;;;;;;10.60;7.10;;;;;;;0.01;100.00;94750.03;5084434;28;20206;-74
2021/12/13 03:24:24;;;;;;;10.60;6.60;;;;;;;-0.06;100.00;94749.06;5089913;28;20216;-79
2021/12/13 03:27:06;;;;;;;8.47;5.80;;;;;;;-0.03;100.00;94754.63;5089540;28;20546;-74
2021/12/13 03:29:48;;;;;;;10.40;6.93;;;;;;;-0.03;100.00;94746.97;5089189;28;20663;-74
2021/12/13 03:32:19;;;;;;;9.10;6.17;;;;;;;-0.02;100.00;94753.69;5087043;28;20203;-74
2021/12/13 03:34:57;;;;;;;8.00;5.83;;;;;;;-0.13;100.00;94753.94;5088475;28;20287;-74
2021/12/13 03:37:26;;;;;;;9.57;6.23;;;;;;;-0.12;100.00;94747.09;5085754;28;20642;-74
2021/12/13 03:39:59;;;;;;;11.37;7.53;;;;;;;-0.07;100.00;94750.78;5088975;28;20258;-74
2021/12/13 03:42:30;;;;;;;12.70;8.20;;;;;;;-0.08;100.00;94754.28;5085796;28;20266;-74
2021/12/13 03:45:02;;;;;;;9.53;6.03;;;;;;;-0.11;100.00;94761.44;5088612;28;20207;-74
2021/12/13 03:47:34;;;;;;;11.33;6.07;;;;;;;-0.19;100.00;94759.66;5088940;28;20203;-74
2021/12/13 03:50:10;;;;;;;7.83;6.07;;;;;;;-0.25;100.00;94756.88;5089100;28;20205;-74
2021/12/13 03:52:44;;;;;;;8.47;6.30;;;;;;;-0.28;100.00;94744.41;5088516;28;20200;-74
2021/12/13 03:55:16;;;;;;;8.17;5.97;;;;;;;-0.37;100.00;94748.69;5089101;28;20228;-74
2021/12/13 03:57:50;;;;;;;10.10;6.37;;;;;;;-0.33;100.00;94751.72;5088135;28;20266;-74
2021/12/13 04:00:22;;;;;;;9.00;5.30;;;;;;;-0.29;100.00;94758.94;5088593;28;20197;-74
2021/12/13 04:02:52;;;;;;;8.90;5.83;;;;;;;-0.32;100.00;94756.72;5087807;28;20217;-74
2021/12/13 04:05:24;;;;;;;10.07;6.50;;;;;;;-0.34;100.00;94758.59;5088464;28;20228;-74
2021/12/13 04:07:56;;;;;;;12.67;6.70;;;;;;;-0.25;100.00;94765.34;5087795;28;20231;-74
2021/12/13 04:10:29;;;;;;;10.90;7.13;;;;;;;-0.21;100.00;94760.75;5087963;28;20283;-74
2021/12/13 04:13:02;;;;;;;9.80;7.60;;;;;;;-0.21;100.00;94759.00;5088334;28;20652;-74
2021/12/13 04:15:46;;;;;;;9.90;6.77;;;;;;;-0.37;100.00;94755.53;5088041;28;20201;-74
2021/12/13 04:18:30;;;;;;;9.43;6.23;;;;;;;-0.44;100.00;94767.28;5086520;28;20699;-74
2021/12/13 04:21:05;;;;;;;10.73;7.13;;;;;;;-0.36;100.00;94762.25;5088481;28;20304;-74
2021/12/13 04:23:34;;;;;;;9.83;6.77;;;;;;;-0.29;100.00;94766.59;5085620;28;20228;-79
2021/12/13 04:26:06;;;;;;;10.63;6.83;;;;;;;-0.54;100.00;94749.50;5088027;28;20214;-75
2021/12/13 04:28:43;;;;;;;11.43;7.00;;;;;;;-0.41;100.00;94759.34;5087095;28;20283;-75
2021/12/13 04:31:15;;;;;;;10.50;6.83;;;;;;;-0.53;100.00;94771.53;5087619;28;20196;-74
2021/12/13 04:33:46;;;;;;;12.77;7.23;;;;;;;-0.52;100.00;94772.34;5087452;28;20196;-74
2021/12/13 04:36:19;;;;;;;9.80;6.40;;;;;;;-0.58;100.00;94771.97;5088520;28;20682;-73
2021/12/13 04:38:51;;;;;;;9.93;7.17;;;;;;;-0.68;100.00;94773.81;5087334;28;20207;-75
2021/12/13 04:41:36;;;;;;;12.03;7.40;;;;;;;-0.55;100.00;94783.66;5087541;28;20200;-74
2021/12/13 04:44:08;;;;;;;12.30;7.83;;;;;;;-0.55;100.00;94793.06;5084541;28;20221;-72
2021/12/13 04:46:40;;;;;;;12.17;7.60;;;;;;;-0.50;100.00;94789.09;5087246;28;20208;-72
2021/12/13 04:49:15;;;;;;;10.13;6.83;;;;;;;-0.49;100.00;94793.25;5083411;28;20227;-70
2021/12/13 04:51:47;;;;;;;12.00;7.37;;;;;;;-0.59;100.00;94793.34;5086700;28;20228;-70
2021/12/13 04:54:17;;;;;;;13.20;8.10;;;;;;;-0.59;100.00;94788.25;5087011;28;20228;-71
2021/12/13 04:56:50;;;;;;;12.37;8.07;;;;;;;-0.72;100.00;94775.03;5085634;28;20243;-70
2021/12/13 04:59:21;;;;;;;11.53;7.33;;;;;;;-0.70;100.00;94773.16;5081730;28;20197;-70
2021/12/13 05:01:53;;;;;;;11.13;7.67;;;;;;;-0.77;100.00;94778.97;5088332;28;20200;-72
2021/12/13 05:04:23;;;;;;;11.63;7.50;;;;;;;-0.71;100.00;94784.31;5088791;28;20311;-72
2021/12/13 05:06:53;;;;;;;11.40;7.67;;;;;;;-0.70;100.00;94785.09;5088998;28;20278;-72
2021/12/13 05:09:25;;;;;;;12.17;7.90;;;;;;;-0.72;100.00;94781.88;5088746;28;20232;-71
2021/12/13 05:11:58;;;;;;;10.03;7.13;;;;;;;-0.74;100.00;94796.53;5088609;28;20205;-71
2021/12/13 05:14:37;;;;;;;12.07;8.00;;;;;;;-0.66;100.00;94794.06;5089094;28;20199;-72
2021/12/13 05:17:11;;;;;;;12.47;8.50;;;;;;;-0.50;100.00;94790.84;5087326;28;20216;-72
2021/12/13 05:19:42;;;;;;;14.13;8.00;;;;;;;-0.47;100.00;94793.09;5084690;28;20686;-72
2021/12/13 05:22:13;;;;;;;15.63;8.83;;;;;;;-0.53;100.00;94791.94;5087558;28;20205;-71
2021/12/13 05:24:46;;;;;;;12.93;7.77;;;;;;;-0.48;100.00;94794.84;5089167;28;20221;-71
2021/12/13 05:27:25;;;;;;;12.63;7.80;;;;;;;-0.59;100.00;94793.34;5090007;28;20621;-71
2021/12/13 05:30:05;;;;;;;13.30;8.33;;;;;;;-0.73;100.00;94787.94;5088701;28;20287;-71
2021/12/13 05:32:39;;;;;;;12.87;8.07;;;;;;;-0.65;100.00;94808.41;5082629;28;20196;-71
2021/12/13 05:35:22;;;;;;;12.63;7.97;;;;;;;-0.67;100.00;94800.94;5088441;28;20200;-71
2021/12/13 05:37:52;;;;;;;12.43;8.70;;;;;;;-0.83;100.00;94782.91;5084636;28;20201;-71
2021/12/13 05:40:24;;;;;;;13.47;8.73;;;;;;;-0.67;100.00;94807.78;5089378;28;20279;-71
2021/12/13 05:42:57;;;;;;;10.27;7.10;;;;;;;-0.57;100.00;94811.03;5089044;28;20675;-71
2021/12/13 05:45:35;;;;;;;10.50;7.73;;;;;;;-0.66;100.00;94814.47;5088751;28;20201;-71
2021/12/13 05:48:09;;;;;;;10.57;7.90;;;;;;;-0.70;100.00;94810.63;5089009;28;20274;-70
2021/12/13 05:50:42;;;;;;;9.73;6.83;;;;;;;-0.65;100.00;94810.97;5082725;28;20208;-70
2021/12/13 05:53:14;;;;;;;12.83;9.33;;;;;;;-0.67;100.00;94815.44;5088292;28;20243;-71
2021/12/13 05:55:59;;;;;;;15.53;10.80;;;;;;;-0.64;100.00;94825.34;5090176;28;20665;-71
2021/12/13 05:58:41;;;;;;;12.37;8.10;;;;;;;-0.65;100.00;94823.72;5092657;28;20200;-71
2021/12/13 06:01:12;;;;;;;16.07;7.37;;;;;;;-0.61;100.00;94827.59;5092441;28;20205;-71
2021/12/13 06:03:46;;;;;;;13.70;8.17;;;;;;;-0.63;100.00;94821.81;5092941;28;20333;-71
2021/12/13 06:06:16;;;;;;;14.70;8.70;;;;;;;-0.61;100.00;94822.50;5086636;28;20200;-72
2021/12/13 06:08:48;;;;;;;8.53;6.07;;;;;;;-0.64;100.00;94826.16;5092726;28;20209;-73
2021/12/13 06:11:21;;;;;;;10.80;7.23;;;;;;;-0.60;100.00;94837.66;5093273;28;20300;-72
2021/12/13 06:14:03;;;;;;;10.47;6.80;;;;;;;-0.65;100.00;94833.94;5091775;28;20203;-71
2021/12/13 06:17:04;;;;;;;13.53;8.87;;;;;;;-0.48;100.00;94840.78;5092315;28;20664;-73
2021/12/13 06:19:34;;;;;;;14.37;9.30;;;;;;;-0.48;100.00;94843.34;5087460;28;20209;-71
2021/12/13 06:22:07;;;;;;;15.77;8.93;;;;;;;-0.45;100.00;94844.78;5090681;28;20325;-71
2021/12/13 06:24:39;;;;;;;22.20;10.90;;;;;;;-0.53;100.00;94847.28;5092209;28;20239;-70
2021/12/13 06:27:12;;;;;;;23.63;11.33;;;;;;;-0.48;100.00;94851.00;5093111;28;20578;-71
2021/12/13 06:29:53;;;;;;;24.87;12.93;;;;;;;-0.49;100.00;94844.28;5090785;28;20197;-70
2021/12/13 06:32:42;;;;;;;21.43;10.80;;;;;;;-0.46;100.00;94859.28;5090600;28;20270;-71
2021/12/13 06:35:40;;;;;;;22.80;11.77;;;;;;;-0.50;100.00;94857.19;5083254;28;20686;-71
2021/12/13 06:38:32;;;;;;;20.10;10.70;;;;;;;-0.50;100.00;94867.41;5091659;28;20197;-71
2021/12/13 06:41:24;;;;;;;13.57;9.10;;;;;;;-0.38;100.00;94856.84;5088198;28;20199;-71
2021/12/13 06:43:53;;;;;;;17.30;10.40;;;;;;;-0.41;100.00;94877.56;5080332;28;20250;-71
2021/12/13 06:46:41;;;;;;;15.37;9.17;;;;;;;-0.40;100.00;94871.47;5091023;28;20195;-71
2021/12/13 06:49:19;;;;;;;12.80;8.90;;;;;;;-0.42;100.00;94878.50;5090171;28;20286;-70
2021/12/13 06:51:51;;;;;;;19.80;11.63;;;;;;;-0.41;100.00;94877.56;5089009;28;20207;-71
2021/12/13 06:54:27;;;;;;;17.13;9.03;;;;;;;-0.36;100.00;94884.75;5087713;28;20752;-75
2021/12/13 06:56:59;;;;;;;16.33;9.17;;;;;;;-0.39;100.00;94875.66;5090471;28;20200;-71
2021/12/13 06:59:28;;;;;;;15.73;8.67;;;;;;;-0.42;100.00;94883.59;5090588;28;20201;-71
2021/12/13 07:02:09;;;;;;;14.67;8.77;;;;;;;-0.46;100.00;94881.50;5090811;28;20200;-71
2021/12/13 07:04:58;;;;;;;14.87;9.17;;;;;;;-0.40;100.00;94878.34;5085723;28;20216;-72
2021/12/13 07:07:30;;;;;;;11.90;7.90;;;;;;;-0.48;100.00;94888.47;5089650;28;20205;-71
2021/12/13 07:10:01;;;;;;;11.37;7.37;;;;;;;-0.41;100.00;94882.66;5089823;28;20213;-72
2021/12/13 07:12:32;;;;;;;13.83;8.40;;;;;;;-0.58;100.00;94879.13;5090664;28;20216;-71
2021/12/13 07:15:02;;;;;;;13.07;8.20;;;;;;;-0.65;100.00;94867.09;5090850;28;20299;-71
2021/12/13 07:17:36;;;;;;;15.93;8.87;;;;;;;-0.58;100.00;94886.78;5089752;28;20224;-70
2021/12/13 07:20:15;;;;;;;14.53;8.80;;;;;;;-0.53;100.00;94883.81;5090792;28;20571;-73
2021/12/13 07:22:44;;;;;;;16.27;9.73;;;;;;;-0.42;100.00;94883.59;5091002;28;20253;-72
2021/12/13 07:25:17;;;;;;;17.70;10.10;;;;;;;-0.47;100.00;94878.13;5090373;28;20769;-72
2021/12/13 07:27:50;;;;;;;14.00;9.17;;;;;;;-0.46;100.00;94894.25;5091944;28;20193;-72
2021/12/13 07:30:21;;;;;;;14.87;9.20;;;;;;;-0.34;100.00;94893.06;5091470;28;20250;-72
2021/12/13 07:32:57;;;;;;;13.60;8.70;;;;;;;-0.39;100.00;94895.25;5088595;28;20395;-82
2021/12/13 07:35:31;;;;;;;14.17;9.20;;;;;;;-0.40;100.00;94902.09;5094383;28;20189;-79
2021/12/13 07:38:02;;;;;;;17.83;10.57;;;;;;;-0.25;100.00;94910.06;5091203;28;20287;-74
2021/12/13 07:40:39;;;;;;;14.33;9.07;;;;;;;-0.15;100.00;94906.50;5091468;28;20196;-75
2021/12/13 07:43:16;;;;;;;19.20;10.47;;;;;;;-0.17;100.00;94913.50;5091254;28;20200;-74
2021/12/13 07:45:52;;;;;;;17.87;10.43;;;;;;;-0.24;100.00;94909.94;5090535;28;20262;-75
2021/12/13 07:48:22;;;;;;;19.07;10.30;;;;;;;-0.28;100.00;94918.81;5090363;28;20228;-75
2021/12/13 07:51:02;;;;;;;14.43;8.30;;;;;;;-0.28;100.00;94918.81;5090603;28;20251;-75
2021/12/13 07:53:39;;;;;;;11.70;7.60;;;;;;;-0.36;100.00;94918.75;5090540;28;20239;-75
2021/12/13 07:56:07;;;;;;;14.90;9.23;;;;;;;-0.41;100.00;94918.38;5090575;28;20200;-75
2021/12/13 07:58:39;;;;;;;16.90;9.23;;;;;;;-0.26;100.00;94928.91;5089666;28;20230;-76
2021/12/13 08:01:22;;;;;;;15.37;8.10;;;;;;;-0.19;100.00;94917.94;5089040;28;20207;-76
2021/12/13 08:03:57;;;;;;;17.57;10.60;;;;;;;-0.11;100.00;94927.44;5090626;28;20349;-74
2021/12/13 08:06:31;;;;;;;17.53;10.83;;;;;;;-0.06;100.00;94922.69;5082789;28;20210;-79
2021/12/13 08:09:02;;;;;;;17.83;10.60;;;;;;;-0.02;100.00;94926.56;5090842;28;20197;-76
2021/12/13 08:11:54;;;;;;;20.60;10.80;;;;;;;-0.02;100.00;94929.09;5090236;28;20192;-80
2021/12/13 08:14:31;;;;;;;20.47;11.13;;;;;;;-0.06;100.00;94926.03;5090502;28;20211;-75
2021/12/13 08:17:10;;;;;;;16.70;8.67;;;;;;;-0.05;100.00;94927.66;5085016;28;20197;-74
2021/12/13 08:19:43;;;;;;;11.50;6.90;;;;;;;-0.21;100.00;94914.75;5080646;28;20213;-76
2021/12/13 08:22:17;;;;;;;16.50;9.90;;;;;;;-0.30;100.00;94920.72;5081772;28;20289;-78
2021/12/13 08:24:49;;;;;;;16.43;10.17;;;;;;;-0.14;100.00;94925.97;5086875;28;20228;-75
2021/12/13 08:27:27;;;;;;;18.20;10.23;;;;;;;-0.06;100.00;94931.13;5090721;28;20227;-75
2021/12/13 08:30:08;;;;;;;16.40;9.33;;;;;;;-0.18;100.00;94913.66;5085400;28;20204;-76
2021/12/13 08:32:37;;;;;;;15.40;9.43;;;;;;;-0.20;100.00;94936.75;5086015;28;20200;-76
2021/12/13 08:35:09;;;;;;;12.67;8.20;;;;;;;-0.14;100.00;94940.47;5089488;28;20231;-75
2021/12/13 08:37:44;;;;;;;17.17;10.20;;;;;;;-0.21;100.00;94937.72;5089111;28;20201;-75
2021/12/13 08:40:18;;;;;;;16.00;9.03;;;;;;;-0.20;100.00;94935.97;5089885;28;20201;-75
2021/12/13 08:42:50;;;;;;;16.47;9.37;;;;;;;-0.19;100.00;94935.00;5089287;28;20257;-74
2021/12/13 08:45:26;;;;;;;15.40;9.73;;;;;;;-0.12;100.00;94943.72;5089547;28;20209;-75
2021/12/13 08:47:58;;;;;;;26.13;13.57;;;;;;;-0.14;100.00;94937.94;5089119;28;20197;-75
2021/12/13 08:50:32;;;;;;;25.67;14.13;;;;;;;-0.12;100.00;94938.59;5088663;28;20215;-75
2021/12/13 08:53:04;;;;;;;26.33;15.90;;;;;;;-0.07;100.00;94936.41;5090264;28;20196;-75
2021/12/13 08:55:35;;;;;;;20.00;11.30;;;;;;;-0.02;100.00;94935.03;5089126;28;20786;-76
2021/12/13 08:58:17;;;;;;;16.97;11.20;;;;;;;0.04;100.00;94936.19;5088900;28;20197;-73
2021/12/13 09:00:59;;;;;;;18.80;11.30;;;;;;;-0.05;100.00;94927.66;5088803;28;20197;-73
2021/12/13 09:03:34;;;;;;;17.60;10.97;;;;;;;-0.01;100.00;94934.09;5089265;28;20224;-75
2021/12/13 09:06:12;;;;;;;14.40;9.30;;;;;;;0.05;100.00;94932.69;5089786;28;20577;-73
2021/12/13 09:08:44;;;;;;;17.00;10.90;;;;;;;0.07;100.00;94935.09;5090065;28;20208;-74
2021/12/13 09:11:20;;;;;;;22.57;12.10;;;;;;;0.04;100.00;94925.16;5089617;28;20197;-74
2021/12/13 09:13:53;;;;;;;16.97;10.03;;;;;;;0.00;100.00;94943.31;5089805;28;20204;-74
2021/12/13 09:16:26;;;;;;;15.90;9.93;;;;;;;0.05;100.00;94937.00;5089581;28;20204;-73
2021/12/13 09:19:11;;;;;;;15.73;9.77;;;;;;;0.26;100.00;94934.94;5089515;28;20208;-74
2021/12/13 09:21:54;;;;;;;17.83;11.03;;;;;;;0.15;100.00;94919.81;5088799;28;20983;-74
2021/12/13 09:24:29;;;;;;;15.37;9.83;;;;;;;0.14;100.00;94926.69;5085115;28;20208;-75
2021/12/13 09:27:11;;;;;;;14.20;8.97;;;;;;;0.12;100.00;94917.56;5089324;28;20732;-75
2021/12/13 09:29:49;;;;;;;16.97;10.40;;;;;;;0.30;100.00;94928.56;5088928;28;20586;-75
2021/12/13 09:32:18;;;;;;;20.43;12.17;;;;;;;0.31;100.00;94925.06;5092170;28;20211;-74
2021/12/13 09:34:47;;;;;;;15.57;10.13;;;;;;;0.36;100.00;94927.97;5093314;28;20318;-74
2021/12/13 09:37:16;;;;;;;18.97;9.93;;;;;;;0.39;100.00;94928.47;5093195;28;20200;-75
2021/12/13 09:39:45;;;;;;;21.63;14.20;;;;;;;0.35;100.00;94921.25;5092448;28;20203;-74
2021/12/13 09:42:16;;;;;;;18.67;11.93;;;;;;;0.38;100.00;94928.59;5092338;28;20205;-75
2021/12/13 09:44:51;;;;;;;18.53;12.40;;;;;;;0.47;100.00;94915.75;5086384;28;20691;-75
2021/12/13 09:47:21;;;;;;;16.87;10.30;;;;;;;0.47;100.00;94917.50;5093066;28;20232;-76
2021/12/13 09:50:01;;;;;;;16.47;9.97;;;;;;;0.47;100.00;94922.59;5091696;28;20291;-76
2021/12/13 09:52:33;;;;;;;13.70;8.83;;;;;;;0.38;100.00;94916.63;5089654;28;20211;-76
2021/12/13 09:55:08;;;;;;;18.10;11.23;;;;;;;0.42;100.00;94917.97;5093411;28;20259;-77
2021/12/13 09:57:39;;;;;;;15.57;10.03;;;;;;;0.44;100.00;94922.91;5093825;28;20889;-75
2021/12/13 10:00:12;;;;;;;16.70;10.30;;;;;;;0.48;100.00;94912.25;5092839;28;20201;-76
2021/12/13 10:02:42;;;;;;;13.70;9.17;;;;;;;0.47;100.00;94920.88;5094097;28;20192;-75
2021/12/13 10:05:15;;;;;;;15.97;9.87;;;;;;;0.43;100.00;94924.66;5093097;28;20213;-75
2021/12/13 10:07:50;;;;;;;14.23;9.37;;;;;;;0.40;100.00;94916.50;5086763;28;20246;-75
2021/12/13 10:10:21;;;;;;;14.60;9.70;;;;;;;0.44;100.00;94915.25;5087476;28;20207;-74
2021/12/13 10:12:55;;;;;;;15.03;9.43;;;;;;;0.67;100.00;94912.97;5093061;28;20201;-74
2021/12/13 10:15:26;;;;;;;13.77;9.00;;;;;;;0.62;100.00;94910.09;5093320;28;20203;-74
2021/12/13 10:17:57;;;;;;;16.43;10.10;;;;;;;0.44;100.00;94900.72;5092508;28;20232;-74
2021/12/13 10:20:29;;;;;;;17.87;11.20;;;;;;;0.56;100.00;94911.50;5090997;28;20230;-78
2021/12/13 10:23:00;;;;;;;17.97;11.07;;;;;;;0.67;100.00;94901.00;5092268;28;20204;-75
2021/12/13 10:25:31;;;;;;;13.67;8.53;;;;;;;0.67;100.00;94906.13;5091425;28;20221;-76
2021/12/13 10:28:00;;;;;;;13.83;8.93;;;;;;;0.68;100.00;94899.25;5093090;28;20635;-76
2021/12/13 10:30:36;;;;;;;15.77;10.13;;;;;;;0.64;100.00;94903.06;5091835;28;20215;-75
2021/12/13 10:33:06;;;;;;;20.13;12.50;;;;;;;0.60;100.00;94901.78;5091909;28;20563;-76
2021/12/13 10:35:36;;;;;;;21.13;13.57;;;;;;;0.70;100.00;94908.38;5092081;28;20197;-76
2021/12/13 10:38:10;;;;;;;17.83;10.07;;;;;;;0.78;100.00;94915.31;5092268;28;20255;-76
2021/12/13 10:40:42;;;;;;;18.17;10.80;;;;;;;0.79;100.00;94898.97;5092274;28;20606;-76
2021/12/13 10:43:15;;;;;;;14.60;8.63;;;;;;;0.70;100.00;94905.81;5090616;28;20571;-76
2021/12/13 10:45:48;;;;;;;15.07;9.60;;;;;;;0.60;100.00;94900.03;5091654;28;20246;-75
2021/12/13 10:48:19;;;;;;;14.23;9.40;;;;;;;0.66;100.00;94896.06;5091283;28;20219;-75
2021/12/13 10:50:50;;;;;;;15.87;10.27;;;;;;;0.62;100.00;94900.66;5091967;28;20230;-76
2021/12/13 10:53:24;;;;;;;19.37;11.87;;;;;;;0.70;100.00;94895.59;5092523;28;20200;-75
2021/12/13 10:55:56;;;;;;;12.37;8.43;;;;;;;0.75;100.00;94897.69;5091879;28;20298;-75
2021/12/13 10:58:26;;;;;;;16.43;9.77;;;;;;;0.79;100.00;94883.63;5092179;28;20200;-74
2021/12/13 11:00:58;;;;;;;17.40;9.87;;;;;;;0.78;100.00;94882.84;5090808;28;20298;-84
2021/12/13 11:03:30;;;;;;;20.93;12.63;;;;;;;0.81;100.00;94890.19;5091166;28;20876;-77
2021/12/13 11:05:59;;;;;;;23.50;13.00;;;;;;;0.98;100.00;94889.31;5085692;28;20217;-76
2021/12/13 11:08:30;;;;;;;17.23;10.90;;;;;;;0.93;100.00;94881.31;5091917;28;20205;-76
2021/12/13 11:11:01;;;;;;;15.27;10.03;;;;;;;0.94;100.00;94887.22;5092569;28;20215;-75
2021/12/13 11:13:32;;;;;;;18.17;11.13;;;;;;;0.87;100.00;94884.47;5091958;28;20203;-75
2021/12/13 11:16:05;;;;;;;20.23;12.00;;;;;;;0.76;100.00;94887.31;5092111;28;20204;-75
2021/12/13 11:18:34;;;;;;;15.93;10.10;;;;;;;0.83;100.00;94887.50;5092626;28;20204;-76
2021/12/13 11:21:05;;;;;;;19.57;10.30;;;;;;;0.88;100.00;94890.41;5091789;28;20201;-75
2021/12/13 11:23:35;;;;;;;20.27;11.77;;;;;;;0.87;100.00;94894.72;5092411;28;20193;-76
2021/12/13 11:26:05;;;;;;;19.20;12.10;;;;;;;0.92;100.00;94891.72;5091776;28;20679;-75
2021/12/13 11:28:34;;;;;;;19.83;10.73;;;;;;;0.97;100.00;94886.94;5091384;28;20204;-76
2021/12/13 11:31:08;;;;;;;17.47;10.87;;;;;;;1.03;100.00;94882.00;5091290;28;20204;-75
2021/12/13 11:34:38;;;;;;;20.97;11.23;;;;;;;0.95;100.00;94891.41;5091786;28;20208;-76
2021/12/13 11:37:38;;;;;;;26.03;15.77;;;;;;;0.93;100.00;94878.75;5090813;28;20200;-75
2021/12/13 11:40:40;;;;;;;25.27;14.80;;;;;;;0.87;100.00;94881.13;5090802;28;20270;-78
2021/12/13 11:43:27;;;;;;;19.00;10.30;;;;;;;0.95;100.00;94884.50;5084818;28;20283;-77
2021/12/13 11:46:20;;;;;;;21.67;12.43;;;;;;;0.92;100.00;94887.41;5091055;28;20221;-77
2021/12/13 11:49:16;;;;;;;23.30;14.43;;;;;;;1.06;100.00;94886.81;5091071;28;20669;-77
2021/12/13 11:52:05;;;;;;;26.63;16.27;;;;;;;1.07;100.00;94882.47;5086845;28;20202;-77
2021/12/13 11:55:06;;;;;;;22.23;13.17;;;;;;;0.98;100.00;94889.31;5084133;28;20240;-88
2021/12/13 11:58:17;;;;;;;20.63;12.23;;;;;;;1.02;100.00;94897.50;5090984;28;20227;-76